Home   Weather   Aqtobe   Past weeks
Flag for Kazakhstan

Past Weather in Aqtobe, Kazakhstan — Yesterday and Last 2 Weeks

Currently: 52 °F. Clear. (Weather station: Aktjubinsk, Kazakhstan). See more current weather

Past Weather in Aqtobe — Graph

°F

Aqtobe Temperature Yesterday

Maximum temperature yesterday: 66 °F (at 3:30 pm)
Minimum temperature yesterday: 36 °F (at 6:00 am)
Average temperature yesterday: 53 °F

High & Low Weather Summary for the Past Weeks

 TemperatureHumidityPressure
High66 °F (Apr 5, 3:30 pm)100% (Mar 29, 1:30 am)30.39 "Hg (Mar 29, 1:30 am)
Low18 °F (Mar 30, 7:00 am)32% (Apr 11, 4:30 pm)29.53 "Hg (Mar 29, 12:00 am)
Average45 °F75%30.10 "Hg
* Reported Mar 29 12:00 am — Apr 13 12:30 am, Aqtobe. Weather by CustomWeather, © 2024

Note: Actual official high and low records may vary slightly from our data, if they occured in-between our weather recording intervals... More about our weather records

Aqtobe Weather History for the Previous 24 Hours

Scroll right to see more
 ConditionsComfort  
Time TempWeatherWind HumidityBarometerVisibility
12:30 am
Sat, Apr 13
52 °FClear.17 mph67%29.83 "Hg10 mi
12:00 am52 °FClear.15 mph67%29.86 "Hg10 mi
11:30 pm
Fri, Apr 12
54 °FClear.15 mph63%29.86 "Hg10 mi
11:00 pm54 °FClear.15 mph63%29.89 "Hg10 mi
10:30 pm54 °FClear.15 mph63%29.89 "Hg10 mi
10:00 pm55 °FClear.15 mph59%29.89 "Hg10 mi
9:30 pm55 °FClear.20 mph59%29.89 "Hg10 mi
9:00 pm57 °FClear.20 mph55%29.89 "Hg10 mi
8:30 pm59 °FClear.15 mph51%29.92 "Hg10 mi
8:00 pm59 °FSunny.17 mph51%29.92 "Hg10 mi
7:30 pm61 °FSunny.20 mph48%29.92 "Hg10 mi
7:00 pm63 °FSunny.20 mph45%29.95 "Hg10 mi
6:30 pm63 °FSunny.24 mph45%29.95 "Hg10 mi
6:00 pm63 °FSunny.24 mph45%29.95 "Hg10 mi
5:30 pm64 °FSunny.24 mph46%29.98 "Hg10 mi
5:00 pm64 °FSunny.24 mph46%29.98 "Hg10 mi
4:30 pm64 °FSunny.22 mph46%29.98 "Hg10 mi
4:00 pm64 °FSunny.22 mph43%30.01 "Hg10 mi
3:30 pm66 °FSunny.22 mph40%30.01 "Hg10 mi
3:00 pm64 °FSunny.22 mph46%30.04 "Hg10 mi
2:30 pm64 °FSunny.22 mph46%30.04 "Hg10 mi
2:00 pm64 °FSunny.22 mph43%30.07 "Hg10 mi
1:30 pm64 °FScattered clouds.22 mph43%30.07 "HgN/A
1:00 pm63 °FSunny.22 mph49%30.07 "Hg10 mi
12:30 pm63 °FSunny.22 mph49%30.09 "Hg10 mi
12:00 pm61 °FSunny.22 mph48%30.09 "Hg10 mi
11:30 am61 °FSunny.20 mph48%30.12 "Hg10 mi
11:00 am61 °FSunny.17 mph48%30.12 "Hg10 mi
10:30 am59 °FSunny.17 mph55%30.12 "Hg10 mi
10:00 am57 °FSunny.17 mph59%30.15 "Hg10 mi
9:30 am55 °FSunny.17 mph59%30.15 "Hg10 mi
9:00 am54 °FSunny.15 mph63%30.15 "Hg10 mi
8:30 am50 °FSunny.8 mph76%30.15 "Hg10 mi
8:00 am48 °FSunny.10 mph76%30.15 "Hg10 mi
7:30 am45 °FSunny.8 mph81%30.18 "Hg10 mi
6:30 am36 °FSunny.3 mph93%30.18 "Hg10 mi
6:00 am36 °FClear.6 mph93%30.18 "Hg10 mi
5:30 am37 °FClear.6 mph93%30.18 "Hg10 mi
5:00 am37 °FClear.6 mph100%30.18 "Hg10 mi
4:30 am37 °FClear.6 mph93%30.18 "Hg10 mi
4:00 am39 °FClear.3 mph93%30.18 "Hg10 mi
3:30 am39 °FClear.3 mph87%30.18 "Hg10 mi
3:00 am39 °FClear.3 mph87%30.18 "Hg10 mi
2:30 am39 °FClear.3 mph87%30.21 "Hg10 mi
2:00 am41 °FClear.3 mph81%30.21 "Hg10 mi
Weather by CustomWeather, © 2024

See weather overview